METAR Data
IDs: Format: Raw Decoded Include TAF

Data at: 0526 UTC 19 Aug 2019

KBVX 190456Z AUTO 16004KT 10SM CLR 26/22 A2998 RMK AO2 SLP148 T02560217 PNO $
KBVX 190356Z AUTO 15005KT 10SM FEW047 26/23 A2999 RMK AO2 SLP150 T02610228 PNO $
KBVX 190256Z AUTO 14005KT 10SM CLR 27/25 A2997 RMK AO2 LTG DSNT E SLP143 6//// T02720250 53023 PNO $
KBVX 190156Z AUTO 16004KT 10SM CLR 28/26 A2994 RMK AO2 SLP133 T02780256 PNO $
KBVX 190056Z AUTO 15005KT 10SM CLR 29/25 A2992 RMK AO2 SLP128 T02890250 PNO $
KBVX 182356Z AUTO 13004KT 10SM CLR 31/25 A2990 RMK AO2 SLP120 6//// T03060250 10328 20300 53004 PNO $
KBVX 182256Z AUTO 11006KT 10SM CLR 31/25 A2988 RMK AO2 SLP115 T03060250 PNO $
KBVX 182156Z AUTO 18004KT 10SM CLR 31/25 A2986 RMK AO2 SLP109 T03060250 PNO $
KBVX 182056Z AUTO VRB04KT 10SM CLR 31/26 A2988 RMK AO2 SLP115 6//// T03110256 58015 PNO $
KBVX 181856Z AUTO VRB04KT 10SM FEW035 33/26 A2992 RMK AO2 LTG DSNT S-W RAB07E21 SLP126 T03280256 PNO $
KBVX 181756Z AUTO 22007KT 10SM FEW033 SCT080 33/26 A2993 RMK AO2 LTG DSNT SW SLP130 6//// T03280256 10328 20244 58006 PNO $
KBVX 181656Z AUTO 23009KT 10SM CLR 32/25 A2995 RMK AO2 SLP137 T03220250 PNO $
KBVX 181556Z AUTO 21005KT 10SM BKN090 31/25 A2995 RMK AO2 SLP138 T03060250 PNO $
KBVX 181456Z AUTO 00000KT 10SM CLR 29/24 A2995 RMK AO2 SLP137 6//// T02940244 51006 PNO $
KBVX 181356Z AUTO 24006KT 10SM CLR 27/23 A2995 RMK AO2 SLP136 T02670233 PNO $
KBVX 181256Z AUTO 20003KT 10SM CLR 25/22 A2994 RMK AO2 SLP133 T02500222 PNO $
KBVX 181156Z AUTO 19005KT 10SM CLR 24/22 A2993 RMK AO2 SLP131 6//// 7//// T02440217 10267 20239 53010 PNO $
KBVX 180956Z AUTO 00000KT 10SM CLR 25/22 A2991 RMK AO2 SLP123 T02500217 PNO $
KBVX 180856Z AUTO 19003KT 10SM CLR 26/22 A2990 RMK AO2 SLP120 6//// T02560217 56006 PNO $
KBVX 180756Z AUTO 18004KT 10SM CLR 26/22 A2990 RMK AO2 SLP121 T02610217 PNO $
KBVX 180656Z AUTO 18006KT 10SM CLR 26/22 A2991 RMK AO2 SLP124 T02610217 PNO $
KBVX 180556Z AUTO VRB05KT 10SM CLR 26/22 A2992 RMK AO2 SLP126 6//// T02610222 10311 20261 403390233 50003 PNO $
KBVX 180456Z AUTO 15005KT 10SM CLR 27/22 A2992 RMK AO2 SLP127 T02670222 PNO $
KBVX 180356Z AUTO 16004KT 10SM CLR 27/22 A2992 RMK AO2 SLP127 T02670222 PNO $
KBVX 180256Z AUTO 13003KT 10SM CLR 27/23 A2991 RMK AO2 SLP124 6//// T02670228 53005 PNO $
KBVX 180156Z AUTO 12003KT 10SM CLR 28/23 A2990 RMK AO2 SLP121 T02780233 PNO $
KBVX 180056Z AUTO 16004KT 10SM CLR 29/23 A2989 RMK AO2 SLP117 T02940233 PNO $
KBVX 172356Z AUTO 15005KT 10SM CLR 31/23 A2989 RMK AO2 SLP119 6//// T03110233 10339 20311 58003 PNO $
KBVX 172256Z AUTO 16005KT 10SM CLR 32/23 A2990 RMK AO2 SLP121 T03220233 PNO $
KBVX 172156Z AUTO 14007KT 10SM FEW046 33/24 A2990 RMK AO2 SLP119 T03330239 PNO $
KBVX 172056Z AUTO 17006KT 10SM CLR 33/24 A2990 RMK AO2 SLP121 6//// T03330239 56024 PNO $
KBVX 171956Z AUTO 14005KT 10SM FEW043 34/23 A2992 RMK AO2 SLP126 T03390233 PNO $
KBVX 171856Z AUTO VRB04KT 10SM CLR 33/25 A2994 RMK AO2 SLP133 T03330250 PNO $
KBVX 171756Z AUTO 00000KT 10SM FEW045 32/24 A2998 RMK AO2 SLP145 6//// T03170239 10322 20250 50002 PNO $
KBVX 171742Z AUTO 00000KT 1SM HZ CLR 32/24 A2998 RMK AO2 RVRNO PNO $